createdAt,value
2018-06-20T00:00:39.156Z,17.60
2018-06-20T00:03:06.533Z,17.50
2018-06-20T00:05:33.780Z,17.50
2018-06-20T00:08:01.056Z,17.50
2018-06-20T00:10:28.296Z,17.50
2018-06-20T00:12:55.576Z,17.50
2018-06-20T00:15:22.820Z,17.50
2018-06-20T00:17:50.069Z,17.50
2018-06-20T00:20:17.353Z,17.50
2018-06-20T00:22:44.621Z,17.50
2018-06-20T00:27:39.132Z,17.50
2018-06-20T00:30:06.384Z,17.50
2018-06-20T00:32:33.721Z,17.50
2018-06-20T00:35:00.951Z,17.40
2018-06-20T00:37:28.289Z,17.40
2018-06-20T00:39:55.537Z,17.40
2018-06-20T00:42:22.800Z,17.40
2018-06-20T00:47:17.344Z,17.40
2018-06-20T00:49:44.652Z,17.40
2018-06-20T00:52:11.918Z,17.40
2018-06-20T00:54:39.165Z,17.40
2018-06-20T00:57:06.413Z,17.30
2018-06-20T00:59:33.670Z,17.40
2018-06-20T01:02:00.944Z,17.30
2018-06-20T01:04:28.228Z,17.30
2018-06-20T01:06:55.534Z,17.30
2018-06-20T01:09:22.818Z,17.30
2018-06-20T01:11:50.214Z,17.30
2018-06-20T01:14:17.430Z,17.30
2018-06-20T01:16:44.709Z,17.30
2018-06-20T01:19:12.111Z,17.30
2018-06-20T01:21:39.413Z,17.30
2018-06-20T01:24:06.714Z,17.30
2018-06-20T01:26:33.994Z,17.30
2018-06-20T01:29:01.290Z,17.30
2018-06-20T01:31:28.631Z,17.30
2018-06-20T01:33:55.903Z,17.30
2018-06-20T01:36:23.190Z,17.30
2018-06-20T01:38:50.482Z,17.30
2018-06-20T01:41:17.758Z,17.30
2018-06-20T01:43:45.044Z,17.30
2018-06-20T01:46:12.371Z,17.30
2018-06-20T01:48:39.638Z,17.30
2018-06-20T01:51:06.923Z,17.20
2018-06-20T01:53:34.246Z,17.20
2018-06-20T01:56:01.534Z,17.20
2018-06-20T01:58:28.850Z,17.20
2018-06-20T02:00:56.155Z,17.10
2018-06-20T02:03:23.454Z,17.10
2018-06-20T02:05:50.750Z,17.10
2018-06-20T02:08:18.021Z,17.10
2018-06-20T02:13:12.637Z,17.10
2018-06-20T02:15:39.910Z,17.00
2018-06-20T02:18:07.289Z,17.00
2018-06-20T02:20:34.582Z,17.00
2018-06-20T02:23:01.883Z,16.90
2018-06-20T02:25:29.203Z,16.90
2018-06-20T02:27:56.490Z,16.90
2018-06-20T02:30:23.767Z,16.90
2018-06-20T02:32:51.066Z,16.80
2018-06-20T02:35:18.340Z,16.80
2018-06-20T02:37:45.650Z,16.80
2018-06-20T02:40:13.007Z,16.80
2018-06-20T02:42:40.350Z,16.70
2018-06-20T02:47:39.888Z,16.70
2018-06-20T02:52:34.958Z,16.70
2018-06-20T02:55:02.343Z,16.70
2018-06-20T02:57:29.614Z,16.70
2018-06-20T02:59:56.907Z,16.70
2018-06-20T03:02:24.214Z,16.60
2018-06-20T03:07:19.795Z,16.60
2018-06-20T03:09:47.091Z,16.60
2018-06-20T03:12:14.388Z,16.60
2018-06-20T03:17:08.983Z,16.50
2018-06-20T03:19:36.307Z,16.50
2018-06-20T03:22:03.575Z,16.40
2018-06-20T03:24:30.846Z,16.40
2018-06-20T03:26:58.139Z,16.40
2018-06-20T03:29:25.438Z,16.40
2018-06-20T03:31:52.788Z,16.40
2018-06-20T03:34:20.070Z,16.30
2018-06-20T03:36:47.413Z,16.30
2018-06-20T03:39:14.678Z,16.30
2018-06-20T03:41:41.934Z,16.30
2018-06-20T03:44:09.276Z,16.20
2018-06-20T03:46:36.564Z,16.30
2018-06-20T03:49:04.151Z,16.30
2018-06-20T03:51:31.463Z,16.30
2018-06-20T03:53:58.898Z,16.30
2018-06-20T03:56:26.202Z,16.30
2018-06-20T03:58:53.922Z,16.20
2018-06-20T04:01:21.232Z,16.20
2018-06-20T04:06:15.942Z,16.20
2018-06-20T04:08:43.256Z,16.20
2018-06-20T04:11:10.575Z,16.20
2018-06-20T04:13:37.912Z,16.30
2018-06-20T04:16:05.309Z,16.30
2018-06-20T04:18:42.627Z,16.30
2018-06-20T04:21:11.369Z,16.30
2018-06-20T04:23:38.677Z,16.40
2018-06-20T04:26:06.831Z,16.50
2018-06-20T04:28:34.162Z,16.50
2018-06-20T04:31:02.108Z,16.50
2018-06-20T04:33:29.427Z,16.50
2018-06-20T04:35:56.823Z,16.60
2018-06-20T04:38:24.159Z,16.70
2018-06-20T04:40:51.458Z,16.80
2018-06-20T04:43:18.734Z,16.90
2018-06-20T04:45:46.030Z,17.10
2018-06-20T04:48:13.318Z,17.30
2018-06-20T04:50:40.769Z,17.40
2018-06-20T04:53:08.310Z,17.60
2018-06-20T04:55:35.668Z,17.60
2018-06-20T04:58:02.952Z,17.70
2018-06-20T05:00:30.270Z,17.70
2018-06-20T05:02:57.603Z,17.80
2018-06-20T05:05:24.867Z,17.90
2018-06-20T05:07:52.127Z,17.90
2018-06-20T05:10:19.433Z,18.00
2018-06-20T05:12:46.806Z,18.20
2018-06-20T05:15:14.153Z,18.30
2018-06-20T05:20:08.779Z,18.40
2018-06-20T05:22:36.113Z,18.50
2018-06-20T05:25:03.539Z,18.60
2018-06-20T05:27:30.929Z,18.70
2018-06-20T05:29:58.227Z,18.80
2018-06-20T05:32:25.536Z,18.90
2018-06-20T05:34:52.848Z,18.90
2018-06-20T05:37:20.210Z,19.00
2018-06-20T05:39:47.515Z,19.10
2018-06-20T05:44:42.057Z,19.30
2018-06-20T05:47:09.302Z,19.50
2018-06-20T05:49:36.644Z,19.50
2018-06-20T05:52:03.946Z,19.60
2018-06-20T05:56:58.485Z,19.80
2018-06-20T05:59:25.769Z,19.80
2018-06-20T06:01:53.030Z,19.90
2018-06-20T06:04:20.307Z,20.00
2018-06-20T06:06:47.597Z,20.00
2018-06-20T06:09:14.897Z,20.00
2018-06-20T06:11:42.150Z,20.00
2018-06-20T06:14:09.442Z,20.00
2018-06-20T06:19:04.070Z,20.00
2018-06-20T06:23:58.593Z,20.00
2018-06-20T06:26:25.873Z,20.00
2018-06-20T06:28:53.157Z,20.00
2018-06-20T06:31:20.517Z,20.00
2018-06-20T06:33:47.792Z,20.00
2018-06-20T06:36:15.092Z,20.00
2018-06-20T06:38:42.937Z,20.00
2018-06-20T06:41:10.209Z,20.00
2018-06-20T06:43:37.482Z,20.00
2018-06-20T06:46:04.810Z,20.00
2018-06-20T06:50:59.338Z,20.10
2018-06-20T06:53:26.639Z,20.10
2018-06-20T06:55:53.897Z,20.10
2018-06-20T06:58:21.195Z,20.10
2018-06-20T07:00:48.453Z,20.10
2018-06-20T07:03:15.750Z,20.10
2018-06-20T07:05:43.043Z,20.20
2018-06-20T07:10:37.594Z,20.10
2018-06-20T07:13:04.874Z,20.20
2018-06-20T07:15:32.173Z,20.20
2018-06-20T07:17:59.442Z,20.20
2018-06-20T07:20:26.754Z,20.20
2018-06-20T07:22:54.016Z,20.30
2018-06-20T07:25:21.318Z,20.30
2018-06-20T07:27:48.590Z,20.40
2018-06-20T07:30:15.905Z,20.40
2018-06-20T07:35:10.470Z,20.50
2018-06-20T07:37:37.742Z,20.60
2018-06-20T07:40:05.388Z,20.60
2018-06-20T07:42:32.694Z,20.60
2018-06-20T07:45:00.083Z,20.70
2018-06-20T07:47:27.258Z,20.70
2018-06-20T07:49:54.525Z,20.70
2018-06-20T07:52:21.805Z,20.80
2018-06-20T07:57:16.321Z,20.90
2018-06-20T07:59:49.341Z,21.00
2018-06-20T08:02:33.966Z,21.00
2018-06-20T08:05:06.981Z,21.00
2018-06-20T08:07:40.119Z,21.10
2018-06-20T08:10:14.843Z,21.20
2018-06-20T08:12:51.518Z,21.20
2018-06-20T08:15:26.078Z,21.30
2018-06-20T08:17:59.125Z,21.40
2018-06-20T08:20:26.559Z,21.30
2018-06-20T08:22:53.890Z,21.40
2018-06-20T08:25:21.158Z,21.40
2018-06-20T08:27:48.415Z,21.40
2018-06-20T08:30:15.798Z,21.40
2018-06-20T08:32:43.059Z,21.40
2018-06-20T08:35:10.362Z,21.50
2018-06-20T08:37:37.684Z,21.60
2018-06-20T08:40:04.975Z,21.70
2018-06-20T08:47:26.773Z,21.90
2018-06-20T08:49:54.715Z,21.90
2018-06-20T08:52:22.038Z,22.00
2018-06-20T08:54:49.365Z,22.10
2018-06-20T08:57:16.647Z,22.10
2018-06-20T08:59:43.907Z,22.10
2018-06-20T09:02:11.255Z,22.00
2018-06-20T09:04:44.318Z,22.00
2018-06-20T09:09:22.683Z,22.00
2018-06-20T09:11:55.646Z,22.00
2018-06-20T09:16:55.853Z,22.20
2018-06-20T09:19:28.853Z,22.30
2018-06-20T09:21:56.212Z,22.40
2018-06-20T09:24:23.433Z,22.50
2018-06-20T09:26:50.719Z,22.50
2018-06-20T09:29:17.998Z,22.60
2018-06-20T09:31:45.309Z,22.60
2018-06-20T09:34:12.585Z,22.70
2018-06-20T09:36:39.858Z,22.70
2018-06-20T09:39:07.273Z,22.70
2018-06-20T09:41:34.779Z,22.80
2018-06-20T09:44:02.144Z,22.80
2018-06-20T09:46:29.534Z,22.80
2018-06-20T09:48:56.828Z,22.90
2018-06-20T09:51:24.093Z,22.90
2018-06-20T09:53:51.393Z,22.90
2018-06-20T09:56:18.650Z,23.00
2018-06-20T09:58:45.941Z,23.00
2018-06-20T10:01:18.795Z,23.10
2018-06-20T10:03:51.729Z,23.10
2018-06-20T10:06:24.801Z,23.10
2018-06-20T10:08:56.594Z,23.10
2018-06-20T10:11:29.638Z,23.10
2018-06-20T10:14:00.258Z,23.00
2018-06-20T10:16:28.678Z,22.90
2018-06-20T10:18:55.988Z,22.90
2018-06-20T10:21:23.324Z,22.90
2018-06-20T10:28:45.201Z,23.10
2018-06-20T10:31:12.449Z,23.20
2018-06-20T10:33:39.781Z,23.20
2018-06-20T10:36:07.098Z,23.30
2018-06-20T10:38:34.360Z,23.30
2018-06-20T10:41:01.663Z,23.40
2018-06-20T10:43:28.921Z,23.40
2018-06-20T10:46:02.122Z,23.40
2018-06-20T10:48:29.385Z,23.40
2018-06-20T10:50:56.676Z,23.30
2018-06-20T10:53:23.969Z,23.30
2018-06-20T10:55:51.225Z,23.30
2018-06-20T10:58:24.222Z,23.30
2018-06-20T11:00:57.149Z,23.30
2018-06-20T11:03:30.394Z,23.40
2018-06-20T11:06:03.333Z,23.50
2018-06-20T11:08:36.207Z,23.50
2018-06-20T11:11:09.077Z,23.60
2018-06-20T11:13:36.382Z,23.70
2018-06-20T11:16:03.786Z,23.70
2018-06-20T11:18:32.613Z,23.80
2018-06-20T11:21:00.033Z,23.90
2018-06-20T11:23:27.903Z,24.00
2018-06-20T11:25:55.374Z,24.00
2018-06-20T11:28:22.671Z,24.00
2018-06-20T11:30:49.970Z,24.00
2018-06-20T11:33:17.247Z,24.00
2018-06-20T11:38:11.818Z,24.00
2018-06-20T11:40:39.128Z,24.00
2018-06-20T11:43:06.505Z,24.00
2018-06-20T11:45:39.416Z,24.00
2018-06-20T11:50:34.174Z,24.10
2018-06-20T11:53:02.989Z,24.10
2018-06-20T11:55:37.318Z,24.20
2018-06-20T11:58:11.065Z,24.10
2018-06-20T12:00:44.193Z,24.20
2018-06-20T12:03:17.150Z,24.20
2018-06-20T12:05:49.990Z,24.20
2018-06-20T12:08:22.942Z,24.20
2018-06-20T12:10:55.933Z,24.20
2018-06-20T12:13:28.907Z,24.20
2018-06-20T12:16:01.756Z,24.30
2018-06-20T12:18:34.690Z,24.30
2018-06-20T12:21:07.667Z,24.40
2018-06-20T12:23:40.575Z,24.40
2018-06-20T12:26:13.461Z,24.50
2018-06-20T12:28:46.361Z,24.50
2018-06-20T12:31:19.215Z,24.60
2018-06-20T12:33:52.249Z,24.70
2018-06-20T12:36:25.201Z,24.70
2018-06-20T12:38:58.497Z,24.70
2018-06-20T12:44:04.307Z,24.70
2018-06-20T12:46:42.570Z,24.80
2018-06-20T12:49:13.121Z,24.80
2018-06-20T12:51:40.426Z,24.80
2018-06-20T12:56:34.977Z,24.90
2018-06-20T12:59:02.255Z,24.90
2018-06-20T13:01:29.538Z,25.00
2018-06-20T13:03:56.867Z,25.00
2018-06-20T13:06:24.082Z,25.00
2018-06-20T13:08:51.369Z,25.10
2018-06-20T13:11:18.672Z,25.10
2018-06-20T13:13:45.982Z,25.10
2018-06-20T13:16:13.262Z,25.20
2018-06-20T13:18:45.587Z,25.20
2018-06-20T13:21:12.841Z,25.30
2018-06-20T13:26:07.383Z,25.30
2018-06-20T13:28:34.657Z,25.30
2018-06-20T13:31:07.687Z,25.20
2018-06-20T13:33:40.630Z,25.20
2018-06-20T13:36:13.553Z,25.20
2018-06-20T13:38:46.462Z,25.20
2018-06-20T13:41:19.397Z,25.20
2018-06-20T13:43:52.453Z,25.20
2018-06-20T13:46:25.287Z,25.20
2018-06-20T13:48:52.624Z,25.30
2018-06-20T13:51:19.886Z,25.30
2018-06-20T13:53:47.161Z,25.40
2018-06-20T13:56:14.465Z,25.40
2018-06-20T13:58:41.722Z,25.40
2018-06-20T14:01:09.006Z,25.50
2018-06-20T14:03:36.289Z,25.50
2018-06-20T14:08:30.917Z,25.50
2018-06-20T14:10:58.170Z,25.50
2018-06-20T14:13:25.453Z,25.50
2018-06-20T14:15:52.721Z,25.50
2018-06-20T14:18:20.039Z,25.50
2018-06-20T14:20:53.077Z,25.50
2018-06-20T14:23:20.380Z,25.60
2018-06-20T14:25:47.666Z,25.60
2018-06-20T14:28:14.953Z,25.60
2018-06-20T14:30:47.945Z,25.60
2018-06-20T14:33:20.989Z,25.70
2018-06-20T14:38:27.061Z,25.70
2018-06-20T14:41:00.029Z,25.80
2018-06-20T14:43:33.018Z,25.80
2018-06-20T14:46:06.059Z,25.80
2018-06-20T14:48:33.379Z,25.80
2018-06-20T14:51:00.667Z,25.90
2018-06-20T14:53:27.953Z,26.00
2018-06-20T14:55:55.258Z,26.00
2018-06-20T14:58:22.546Z,26.10
2018-06-20T15:00:49.838Z,26.10
2018-06-20T15:03:17.149Z,26.10
2018-06-20T15:05:44.461Z,26.10
2018-06-20T15:08:11.864Z,26.10
2018-06-20T15:10:39.387Z,26.10
2018-06-20T15:13:06.737Z,26.10
2018-06-20T15:18:01.380Z,26.20
2018-06-20T15:22:56.022Z,26.20
2018-06-20T15:25:29.059Z,26.20
2018-06-20T15:28:01.958Z,26.30
2018-06-20T15:30:34.897Z,26.30
2018-06-20T15:33:07.863Z,26.40
2018-06-20T15:35:40.754Z,26.50
2018-06-20T15:38:13.613Z,26.60
2018-06-20T15:40:40.918Z,26.60
2018-06-20T15:43:08.219Z,26.70
2018-06-20T15:45:35.507Z,26.70
2018-06-20T15:48:02.898Z,26.80
2018-06-20T15:50:30.217Z,26.80
2018-06-20T15:52:57.467Z,26.80
2018-06-20T15:55:24.722Z,26.80
2018-06-20T15:57:52.042Z,26.80
2018-06-20T16:00:19.339Z,26.70
2018-06-20T16:02:46.688Z,26.80
2018-06-20T16:05:13.994Z,26.70
2018-06-20T16:07:41.266Z,26.70
2018-06-20T16:10:11.239Z,26.70
2018-06-20T16:12:38.529Z,26.60
2018-06-20T16:15:05.845Z,26.60
2018-06-20T16:20:06.279Z,26.60
2018-06-20T16:25:12.233Z,26.60
2018-06-20T16:27:45.150Z,26.60
2018-06-20T16:30:45.938Z,26.60
2018-06-20T16:33:15.439Z,26.60
2018-06-20T16:35:42.768Z,26.60
2018-06-20T16:38:10.066Z,26.60
2018-06-20T16:40:37.397Z,26.50
2018-06-20T16:43:04.710Z,26.50
2018-06-20T16:45:32.045Z,26.50
2018-06-20T16:47:59.297Z,26.50
2018-06-20T16:52:53.909Z,26.40
2018-06-20T16:55:21.308Z,26.40
2018-06-20T16:57:48.610Z,26.40
2018-06-20T17:00:16.022Z,26.40
2018-06-20T17:02:43.948Z,26.40
2018-06-20T17:05:11.510Z,26.40
2018-06-20T17:07:38.817Z,26.40
2018-06-20T17:10:06.141Z,26.40
2018-06-20T17:12:39.243Z,26.50
2018-06-20T17:17:45.294Z,26.50
2018-06-20T17:20:18.234Z,26.50
2018-06-20T17:22:51.159Z,26.50
2018-06-20T17:25:23.233Z,26.40
2018-06-20T17:27:50.538Z,26.40
2018-06-20T17:30:17.851Z,26.40
2018-06-20T17:32:45.274Z,26.40
2018-06-20T17:35:12.630Z,26.50
2018-06-20T17:37:39.974Z,26.50
2018-06-20T17:40:07.312Z,26.50
2018-06-20T17:42:34.602Z,26.50
2018-06-20T17:45:02.007Z,26.50
2018-06-20T17:47:29.270Z,26.50
2018-06-20T17:49:56.606Z,26.50
2018-06-20T17:52:23.874Z,26.50
2018-06-20T17:54:51.206Z,26.40
2018-06-20T17:59:45.769Z,26.50
2018-06-20T18:02:13.144Z,26.40
2018-06-20T18:04:46.050Z,26.40
2018-06-20T18:07:18.863Z,26.40
2018-06-20T18:09:51.834Z,26.40
2018-06-20T18:12:24.770Z,26.40
2018-06-20T18:15:58.058Z,26.30
2018-06-20T18:18:25.382Z,26.20
2018-06-20T18:20:52.764Z,26.20
2018-06-20T18:25:47.358Z,26.10
2018-06-20T18:28:14.680Z,26.00
2018-06-20T18:30:41.992Z,25.90
2018-06-20T18:33:09.542Z,25.90
2018-06-20T18:35:36.869Z,25.80
2018-06-20T18:38:04.367Z,25.80
2018-06-20T18:40:31.635Z,25.70
2018-06-20T18:42:58.998Z,25.60
2018-06-20T18:45:26.330Z,25.60
2018-06-20T18:47:59.230Z,25.40
2018-06-20T18:50:26.541Z,25.40
2018-06-20T18:52:53.900Z,25.20
2018-06-20T18:55:21.254Z,25.20
2018-06-20T18:57:54.448Z,25.10
2018-06-20T19:01:29.149Z,25.00
2018-06-20T19:04:06.325Z,24.90
2018-06-20T19:06:39.706Z,24.70
2018-06-20T19:09:11.302Z,24.60
2018-06-20T19:11:38.620Z,24.50
2018-06-20T19:16:33.328Z,24.30
2018-06-20T19:19:00.662Z,24.30
2018-06-20T19:21:27.981Z,24.20
2018-06-20T19:23:55.261Z,24.10
2018-06-20T19:26:22.579Z,24.00
2018-06-20T19:28:49.983Z,24.00
2018-06-20T19:31:17.326Z,23.90
2018-06-20T19:33:45.202Z,23.80
2018-06-20T19:36:12.509Z,23.70
2018-06-20T19:38:39.919Z,23.60
2018-06-20T19:41:07.487Z,23.60
2018-06-20T19:43:39.386Z,23.50
2018-06-20T19:46:06.882Z,23.40
2018-06-20T19:48:34.234Z,23.30
2018-06-20T19:51:01.503Z,23.20
2018-06-20T19:53:28.839Z,23.20
2018-06-20T19:55:56.098Z,23.10
2018-06-20T19:58:23.389Z,23.10
2018-06-20T20:00:50.690Z,23.00
2018-06-20T20:03:17.998Z,22.90
2018-06-20T20:05:45.328Z,22.80
2018-06-20T20:08:12.594Z,22.70
2018-06-20T20:10:39.936Z,22.60
2018-06-20T20:13:07.206Z,22.50
2018-06-20T20:15:34.514Z,22.40
2018-06-20T20:18:01.811Z,22.30
2018-06-20T20:20:29.164Z,22.30
2018-06-20T20:22:56.414Z,22.20
2018-06-20T20:25:23.762Z,22.10
2018-06-20T20:30:18.430Z,22.00
2018-06-20T20:32:45.779Z,21.90
2018-06-20T20:35:13.058Z,21.80
2018-06-20T20:37:40.374Z,21.70
2018-06-20T20:40:07.651Z,21.60
2018-06-20T20:45:02.311Z,21.40
2018-06-20T20:47:29.667Z,21.40
2018-06-20T20:49:56.984Z,21.40
2018-06-20T20:52:24.318Z,21.40
2018-06-20T20:54:51.636Z,21.30
2018-06-20T20:57:18.953Z,21.30
2018-06-20T20:59:46.323Z,21.20
2018-06-20T21:02:13.623Z,21.10
2018-06-20T21:04:40.932Z,21.10
2018-06-20T21:07:08.291Z,21.10
2018-06-20T21:09:35.682Z,21.00
2018-06-20T21:12:03.022Z,21.00
2018-06-20T21:14:30.342Z,21.00
2018-06-20T21:16:57.706Z,21.00
2018-06-20T21:19:24.969Z,21.00
2018-06-20T21:21:52.308Z,21.00
2018-06-20T21:24:19.656Z,20.90
2018-06-20T21:29:14.318Z,20.90
2018-06-20T21:31:41.604Z,20.90
2018-06-20T21:34:08.946Z,20.90
2018-06-20T21:36:36.319Z,20.90
2018-06-20T21:39:06.679Z,20.80
2018-06-20T21:41:33.996Z,20.80
2018-06-20T21:46:28.713Z,20.80
2018-06-20T21:48:56.105Z,20.70
2018-06-20T21:51:23.467Z,20.70
2018-06-20T21:53:50.934Z,20.70
2018-06-20T21:56:18.218Z,20.70
2018-06-20T22:01:12.882Z,20.60
2018-06-20T22:03:40.248Z,20.60
2018-06-20T22:06:07.981Z,20.60
2018-06-20T22:08:35.273Z,20.50
2018-06-20T22:11:02.560Z,20.50
2018-06-20T22:13:29.879Z,20.50
2018-06-20T22:15:57.298Z,20.40
2018-06-20T22:18:24.619Z,20.40
2018-06-20T22:20:51.991Z,20.30
2018-06-20T22:23:19.273Z,20.30
2018-06-20T22:25:46.611Z,20.20
2018-06-20T22:28:13.910Z,20.20
2018-06-20T22:30:41.216Z,20.20
2018-06-20T22:33:08.522Z,20.10
2018-06-20T22:35:35.789Z,20.10
2018-06-20T22:38:03.125Z,20.10
2018-06-20T22:40:30.510Z,20.10
2018-06-20T22:42:57.856Z,20.00
2018-06-20T22:45:25.133Z,19.90
2018-06-20T22:55:14.389Z,19.60
2018-06-20T22:57:41.677Z,19.50
2018-06-20T23:00:09.637Z,19.40
2018-06-20T23:02:37.170Z,19.40
2018-06-20T23:05:04.630Z,19.40
2018-06-20T23:07:31.939Z,19.30
2018-06-20T23:09:59.267Z,19.40
2018-06-20T23:12:26.558Z,19.40
2018-06-20T23:14:53.853Z,19.40
2018-06-20T23:17:21.166Z,19.40
2018-06-20T23:19:48.503Z,19.40
2018-06-20T23:22:15.794Z,19.40
2018-06-20T23:24:43.103Z,19.30
2018-06-20T23:27:10.451Z,19.30
2018-06-20T23:29:37.761Z,19.30
2018-06-20T23:32:05.305Z,19.30
2018-06-20T23:34:32.629Z,19.30
2018-06-20T23:36:59.950Z,19.20
2018-06-20T23:39:27.272Z,19.20
2018-06-20T23:41:54.552Z,19.10
2018-06-20T23:44:21.853Z,19.10
2018-06-20T23:46:49.168Z,19.00
2018-06-20T23:49:16.472Z,19.00
2018-06-20T23:51:43.770Z,18.90
2018-06-20T23:54:11.111Z,18.90
2018-06-20T23:56:38.425Z,19.00
2018-06-20T23:59:05.729Z,19.00
